Time;durP1;ratioP1;P1;durP2;ratioP2;P2;SDS_P1;SDS_P2;PMS_P1;PMS_P2;Temp;Humidity;BMP_temperature;BMP_pressure;BME280_temperature;BME280_humidity;BME280_pressure;Samples;Min_cycle;Max_cycle;Signal;HPM_P1;HPM_P2
2021/05/17 00:00:47;;;;;;;2.08;0.85;;;12.80;99.90;;;;;;5085575;28;20056;-76
2021/05/17 00:03:17;;;;;;;0.60;0.52;;;13.00;99.90;;;;;;5085145;28;20130;-76
2021/05/17 00:05:45;;;;;;;2.53;1.23;;;13.10;99.90;;;;;;5082495;28;20082;-76
2021/05/17 00:08:12;;;;;;;5.07;1.20;;;12.80;99.90;;;;;;5089252;28;20117;-74
2021/05/17 00:10:39;;;;;;;5.70;1.75;;;12.60;99.90;;;;;;5089732;28;20080;-74
2021/05/17 00:13:07;;;;;;;2.10;1.10;;;12.60;99.90;;;;;;5088444;28;20062;-75
2021/05/17 00:15:34;;;;;;;3.47;1.27;;;12.60;99.90;;;;;;5094055;28;20052;-75
2021/05/17 00:18:01;;;;;;;2.65;0.90;;;12.60;99.90;;;;;;5088406;28;20048;-77
2021/05/17 00:20:28;;;;;;;1.33;0.68;;;12.50;99.90;;;;;;5091201;28;20071;-77
2021/05/17 00:22:55;;;;;;;1.30;0.70;;;12.50;99.90;;;;;;5085151;28;20087;-77
2021/05/17 00:25:23;;;;;;;0.85;0.50;;;12.60;99.90;;;;;;5086388;28;20079;-76
2021/05/17 00:27:55;;;;;;;0.50;0.50;;;12.60;99.90;;;;;;5086062;28;20411;-74
2021/05/17 00:30:28;;;;;;;0.77;0.60;;;12.80;99.90;;;;;;5082872;28;20119;-76
2021/05/17 00:32:58;;;;;;;0.73;0.50;;;12.60;99.90;;;;;;5089038;28;20060;-77
2021/05/17 00:35:26;;;;;;;2.30;0.47;;;12.80;99.90;;;;;;5092448;28;20075;-76
2021/05/17 00:37:53;;;;;;;0.75;0.57;;;12.90;99.90;;;;;;5077977;28;20044;-77
2021/05/17 00:40:22;;;;;;;0.63;0.50;;;12.90;99.90;;;;;;5081019;28;20075;-76
2021/05/17 00:42:50;;;;;;;0.60;0.52;;;12.70;99.90;;;;;;5086527;28;20044;-77
2021/05/17 00:45:21;;;;;;;2.75;0.90;;;12.50;99.90;;;;;;5088479;28;20048;-77
2021/05/17 00:47:50;;;;;;;2.13;0.63;;;12.40;99.90;;;;;;5085136;28;20084;-77
2021/05/17 00:50:24;;;;;;;0.75;0.47;;;12.60;99.90;;;;;;5082356;28;20052;-77
2021/05/17 00:52:53;;;;;;;2.33;1.20;;;12.50;99.90;;;;;;5079208;28;20079;-76
2021/05/17 00:55:20;;;;;;;0.80;0.65;;;12.40;99.90;;;;;;5084480;28;20049;-77
2021/05/17 00:57:48;;;;;;;0.40;0.40;;;12.30;99.90;;;;;;5080491;28;20483;-76
2021/05/17 01:00:18;;;;;;;1.27;0.65;;;12.50;99.90;;;;;;5077012;28;20604;-77
2021/05/17 01:02:45;;;;;;;6.40;2.83;;;12.60;99.90;;;;;;5080377;28;20067;-77
2021/05/17 01:05:12;;;;;;;4.53;1.92;;;12.50;99.90;;;;;;5084325;28;20083;-77
2021/05/17 01:07:45;;;;;;;4.30;1.30;;;12.50;99.90;;;;;;5081924;28;20040;-77
2021/05/17 01:10:19;;;;;;;5.68;2.17;;;12.60;99.90;;;;;;5078072;28;20047;-77
2021/05/17 01:12:48;;;;;;;1.52;0.93;;;12.50;99.90;;;;;;5081020;28;20136;-77
2021/05/17 01:15:18;;;;;;;4.97;1.92;;;12.50;99.90;;;;;;5085564;28;20613;-77
2021/05/17 01:17:45;;;;;;;3.72;1.65;;;12.30;99.90;;;;;;5084821;28;20045;-77
2021/05/17 01:20:17;;;;;;;2.78;0.80;;;12.30;99.90;;;;;;5089509;28;20048;-77
2021/05/17 01:22:51;;;;;;;4.53;1.75;;;12.50;99.90;;;;;;5086586;28;20040;-76
2021/05/17 01:25:21;;;;;;;2.08;1.05;;;12.60;99.90;;;;;;5075870;28;20564;-76
2021/05/17 01:27:48;;;;;;;2.28;1.08;;;12.50;99.90;;;;;;5084162;28;20052;-77
2021/05/17 01:30:16;;;;;;;2.58;0.85;;;12.40;99.90;;;;;;5079237;28;20080;-77
2021/05/17 01:32:44;;;;;;;2.20;0.98;;;12.50;99.90;;;;;;5081926;28;20111;-77
2021/05/17 01:35:12;;;;;;;3.97;0.80;;;12.50;99.90;;;;;;5082085;28;20048;-77
2021/05/17 01:37:40;;;;;;;2.42;0.70;;;12.50;99.90;;;;;;5076394;28;20044;-78
2021/05/17 01:40:09;;;;;;;1.92;1.00;;;12.50;99.90;;;;;;5079867;28;20052;-77
2021/05/17 01:42:40;;;;;;;1.80;0.70;;;12.70;99.90;;;;;;5079803;28;20102;-77
2021/05/17 01:45:09;;;;;;;2.78;0.90;;;12.60;99.90;;;;;;5094521;28;20056;-77
2021/05/17 01:47:39;;;;;;;5.95;1.92;;;12.60;99.90;;;;;;5086226;28;20124;-77
2021/05/17 01:50:09;;;;;;;1.98;1.25;;;12.60;99.90;;;;;;5076083;28;20072;-77
2021/05/17 01:52:38;;;;;;;6.22;1.65;;;12.50;99.90;;;;;;5081010;28;20131;-76
2021/05/17 01:55:07;;;;;;;5.78;1.88;;;12.40;99.90;;;;;;5082539;28;20785;-77
2021/05/17 01:57:34;;;;;;;5.57;1.77;;;12.30;99.90;;;;;;5076594;28;20056;-77
2021/05/17 02:00:05;;;;;;;5.03;1.50;;;12.40;99.90;;;;;;5079964;28;20072;-76
2021/05/17 02:02:32;;;;;;;4.53;1.20;;;12.50;99.90;;;;;;5079873;28;20052;-77
2021/05/17 02:04:59;;;;;;;3.20;1.17;;;12.40;99.90;;;;;;5074621;28;20040;-78
2021/05/17 02:07:26;;;;;;;6.28;1.60;;;12.50;99.90;;;;;;5086365;28;20467;-78
2021/05/17 02:09:53;;;;;;;3.83;1.35;;;12.60;99.90;;;;;;5080832;28;20045;-78
2021/05/17 02:12:23;;;;;;;2.65;1.25;;;12.50;99.90;;;;;;5074321;28;20383;-76
2021/05/17 02:14:55;;;;;;;3.30;1.40;;;12.50;99.90;;;;;;5087187;28;20075;-77
2021/05/17 02:17:24;;;;;;;4.30;1.67;;;12.50;99.90;;;;;;5080240;28;20530;-75
2021/05/17 02:19:51;;;;;;;4.88;2.15;;;12.60;99.90;;;;;;5078400;28;20623;-78
2021/05/17 02:22:20;;;;;;;3.72;1.17;;;12.60;99.90;;;;;;5081922;28;20097;-79
2021/05/17 02:24:47;;;;;;;3.60;1.10;;;12.60;99.90;;;;;;5087728;28;20568;-78
2021/05/17 02:27:16;;;;;;;2.25;1.00;;;12.60;99.90;;;;;;5086330;28;20075;-78
2021/05/17 02:29:44;;;;;;;4.97;1.10;;;12.80;99.90;;;;;;5079444;28;20776;-77
2021/05/17 02:32:22;;;;;;;2.20;0.90;;;12.80;99.90;;;;;;5081003;28;20103;-77
2021/05/17 02:34:50;;;;;;;2.03;0.88;;;12.70;99.90;;;;;;5081723;28;20530;-77
2021/05/17 02:37:18;;;;;;;2.65;1.27;;;12.60;99.90;;;;;;5092104;28;20338;-78
2021/05/17 02:39:45;;;;;;;5.75;1.38;;;12.70;99.90;;;;;;5082310;28;20498;-77
2021/05/17 02:42:17;;;;;;;13.18;1.23;;;12.70;99.90;;;;;;5080276;28;20115;-77
2021/05/17 02:44:45;;;;;;;5.95;1.63;;;12.70;99.90;;;;;;5075389;28;20044;-75
2021/05/17 02:47:12;;;;;;;4.30;1.40;;;12.60;99.90;;;;;;5083261;28;20098;-77
2021/05/17 02:49:39;;;;;;;3.78;1.55;;;12.60;99.90;;;;;;5078731;28;20067;-77
2021/05/17 02:52:07;;;;;;;4.15;1.00;;;12.70;99.90;;;;;;5080729;28;20060;-77
2021/05/17 02:54:38;;;;;;;2.35;0.80;;;12.60;99.90;;;;;;5075017;28;20052;-77
2021/05/17 02:57:11;;;;;;;1.58;0.80;;;12.80;99.90;;;;;;5079567;28;20056;-77
2021/05/17 02:59:51;;;;;;;1.95;0.73;;;12.70;99.90;;;;;;5081329;28;20048;-77
2021/05/17 03:02:21;;;;;;;6.28;1.75;;;12.50;99.90;;;;;;5078291;28;20072;-77
2021/05/17 03:04:51;;;;;;;4.15;1.00;;;12.40;99.90;;;;;;5080265;28;20134;-70
2021/05/17 03:07:23;;;;;;;6.70;0.95;;;12.30;99.90;;;;;;5080061;28;20067;-70
2021/05/17 03:09:50;;;;;;;2.53;1.02;;;12.40;99.90;;;;;;5076955;28;20060;-70
2021/05/17 03:12:21;;;;;;;4.50;1.00;;;12.60;99.90;;;;;;5078771;28;20054;-69
2021/05/17 03:14:50;;;;;;;2.90;1.10;;;12.50;99.90;;;;;;5081892;28;20501;-70
2021/05/17 03:17:18;;;;;;;4.23;0.80;;;12.50;99.90;;;;;;5084244;28;20041;-77
2021/05/17 03:19:45;;;;;;;2.97;0.80;;;12.50;99.90;;;;;;5081786;28;20340;-78
2021/05/17 03:22:13;;;;;;;1.48;0.70;;;12.60;99.90;;;;;;5072585;28;20055;-78
2021/05/17 03:24:41;;;;;;;1.33;0.65;;;12.40;99.90;;;;;;5085352;28;20403;-78
2021/05/17 03:27:25;;;;;;;3.55;0.95;;;12.40;99.90;;;;;;5077212;28;20570;-77
2021/05/17 03:29:52;;;;;;;1.00;0.70;;;12.40;99.90;;;;;;5084823;28;20402;-77
2021/05/17 03:32:22;;;;;;;3.58;1.10;;;12.40;99.90;;;;;;5077905;28;20720;-77
2021/05/17 03:34:49;;;;;;;2.25;0.95;;;12.30;99.90;;;;;;5081180;28;20078;-77
2021/05/17 03:37:16;;;;;;;3.13;0.98;;;12.50;99.90;;;;;;5086300;28;20048;-76
2021/05/17 03:39:45;;;;;;;4.55;1.27;;;12.30;99.90;;;;;;5081186;28;20040;-77
2021/05/17 03:42:13;;;;;;;2.95;0.95;;;12.20;99.90;;;;;;5077157;28;20132;-77
2021/05/17 03:44:39;;;;;;;6.32;0.77;;;12.20;99.90;;;;;;5079968;28;20074;-77
2021/05/17 03:47:06;;;;;;;3.90;1.00;;;12.40;99.90;;;;;;5079055;28;20056;-77
2021/05/17 03:49:33;;;;;;;2.50;0.90;;;12.50;99.90;;;;;;5075590;28;20552;-77
2021/05/17 03:52:00;;;;;;;2.10;0.70;;;12.50;99.90;;;;;;5078612;28;20477;-76
2021/05/17 03:54:27;;;;;;;3.65;0.88;;;12.30;99.90;;;;;;5084026;28;20044;-77
2021/05/17 03:56:54;;;;;;;9.93;0.95;;;12.60;99.90;;;;;;5074201;28;20143;-77
2021/05/17 03:59:21;;;;;;;5.70;1.00;;;12.60;99.90;;;;;;5075794;28;20420;-69
2021/05/17 04:01:49;;;;;;;6.38;1.55;;;12.50;99.90;;;;;;5080114;28;20117;-69
2021/05/17 04:04:18;;;;;;;2.05;0.70;;;12.60;99.90;;;;;;5080132;28;20530;-69
2021/05/17 04:14:46;;;;;;;1.27;0.60;;;12.40;99.90;;;;;;5080048;28;20117;-72
2021/05/17 04:17:12;;;;;;;1.88;0.70;;;12.50;99.90;;;;;;5078655;28;20102;-70
2021/05/17 04:19:39;;;;;;;3.55;0.70;;;12.10;99.90;;;;;;5092461;28;20110;-70
2021/05/17 04:22:06;;;;;;;4.05;0.70;;;12.20;99.90;;;;;;5073435;28;20131;-70
2021/05/17 04:24:33;;;;;;;4.35;0.60;;;12.20;99.90;;;;;;5085464;28;20196;-70
2021/05/17 04:27:00;;;;;;;3.72;1.00;;;12.30;99.90;;;;;;5073749;28;20056;-70
2021/05/17 04:29:28;;;;;;;1.58;0.52;;;12.20;99.90;;;;;;5079093;28;20053;-70
2021/05/17 04:31:55;;;;;;;0.95;0.47;;;12.10;99.90;;;;;;5082092;28;20131;-71
2021/05/17 04:34:22;;;;;;;3.08;0.65;;;12.20;99.90;;;;;;5075884;28;20056;-69
2021/05/17 04:36:48;;;;;;;3.03;0.75;;;12.30;99.90;;;;;;5081429;28;20044;-70
2021/05/17 04:39:16;;;;;;;1.02;0.50;;;12.40;99.90;;;;;;5077507;28;20052;-69
2021/05/17 04:41:43;;;;;;;1.58;0.50;;;12.50;99.90;;;;;;5074655;28;20480;-69
2021/05/17 04:44:11;;;;;;;4.05;0.70;;;12.30;99.90;;;;;;5076994;28;20082;-70
2021/05/17 04:46:37;;;;;;;1.75;0.65;;;12.20;99.90;;;;;;5084770;28;20048;-70
2021/05/17 04:49:04;;;;;;;3.08;0.73;;;12.00;99.90;;;;;;5077065;28;20124;-69
2021/05/17 04:51:31;;;;;;;0.85;0.50;;;12.00;99.90;;;;;;5087689;28;20090;-70
2021/05/17 04:53:58;;;;;;;1.02;0.70;;;12.00;99.90;;;;;;5081156;28;20056;-69
2021/05/17 04:56:24;;;;;;;2.38;0.50;;;12.10;99.90;;;;;;5076295;28;20090;-69
2021/05/17 04:58:52;;;;;;;1.77;0.60;;;12.10;99.90;;;;;;5084512;28;20079;-69
2021/05/17 05:01:19;;;;;;;2.35;0.60;;;12.20;99.90;;;;;;5081741;28;20072;-71
2021/05/17 05:03:45;;;;;;;2.35;0.90;;;12.00;99.90;;;;;;5076690;28;20076;-71
2021/05/17 05:06:12;;;;;;;2.90;0.70;;;12.00;99.90;;;;;;5085352;28;20450;-70
2021/05/17 05:08:39;;;;;;;2.45;0.80;;;12.30;99.90;;;;;;5080673;28;20131;-69
2021/05/17 05:11:06;;;;;;;5.63;0.70;;;12.30;99.90;;;;;;5075884;28;20507;-70
2021/05/17 05:13:32;;;;;;;1.35;0.70;;;12.30;99.90;;;;;;5083190;28;20044;-70
2021/05/17 05:15:59;;;;;;;1.75;0.80;;;12.50;99.90;;;;;;5081994;28;20047;-69
2021/05/17 05:18:26;;;;;;;1.92;0.70;;;12.20;99.90;;;;;;5075074;28;20086;-70
2021/05/17 05:20:53;;;;;;;3.38;0.80;;;12.30;99.90;;;;;;5084004;28;20406;-69
2021/05/17 05:23:21;;;;;;;4.07;0.70;;;12.10;99.90;;;;;;5079907;28;20054;-70
2021/05/17 05:28:24;;;;;;;4.13;0.90;;;12.20;99.90;;;;;;5087251;28;20040;-70
2021/05/17 05:31:02;;;;;;;3.13;0.70;;;12.30;99.90;;;;;;5096078;28;20052;-70
2021/05/17 05:33:29;;;;;;;0.85;0.68;;;12.10;99.90;;;;;;5073846;28;20068;-70
2021/05/17 05:35:56;;;;;;;3.05;0.95;;;12.20;99.90;;;;;;5083686;28;20060;-69
2021/05/17 05:38:23;;;;;;;3.35;1.00;;;12.30;99.90;;;;;;5077517;28;20458;-70
2021/05/17 05:40:50;;;;;;;2.53;0.70;;;12.30;99.90;;;;;;5080520;28;20090;-72
2021/05/17 05:43:18;;;;;;;2.47;0.88;;;12.50;99.90;;;;;;5084365;28;20459;-70
2021/05/17 05:45:45;;;;;;;6.07;1.00;;;12.60;99.90;;;;;;5080475;28;20093;-70
2021/05/17 05:48:13;;;;;;;8.52;1.15;;;12.60;99.90;;;;;;5075652;28;20119;-70
2021/05/17 05:50:45;;;;;;;6.75;1.27;;;12.60;99.90;;;;;;5081866;28;20044;-70
2021/05/17 05:53:13;;;;;;;5.25;0.90;;;12.70;99.90;;;;;;5078914;28;20090;-70
2021/05/17 05:55:40;;;;;;;2.28;0.65;;;12.90;99.90;;;;;;5073820;28;20426;-71
2021/05/17 05:58:07;;;;;;;2.08;0.90;;;12.90;99.90;;;;;;5083967;28;20100;-72
2021/05/17 06:00:34;;;;;;;4.07;0.80;;;12.80;99.90;;;;;;5081237;28;20068;-70
2021/05/17 06:03:01;;;;;;;1.42;0.65;;;12.90;99.90;;;;;;5081375;28;20110;-70
2021/05/17 06:05:28;;;;;;;7.63;0.80;;;12.90;99.90;;;;;;5085189;28;20109;-69
2021/05/17 06:07:57;;;;;;;1.27;0.73;;;13.00;99.90;;;;;;5077077;28;20040;-70
2021/05/17 06:10:24;;;;;;;2.55;0.77;;;13.00;99.90;;;;;;5078583;28;20048;-69
2021/05/17 06:12:51;;;;;;;1.83;0.60;;;13.00;99.90;;;;;;5084207;28;20052;-70
2021/05/17 06:15:20;;;;;;;6.70;0.70;;;13.00;99.90;;;;;;5076214;28;20530;-69
2021/05/17 06:17:47;;;;;;;4.10;0.80;;;13.10;99.90;;;;;;5099754;28;20041;-69
2021/05/17 06:20:15;;;;;;;1.85;0.60;;;12.80;99.90;;;;;;5095736;28;20075;-69
2021/05/17 06:22:42;;;;;;;2.22;0.90;;;12.90;99.90;;;;;;5075990;28;20051;-69
2021/05/17 06:25:12;;;;;;;7.57;1.05;;;13.10;99.90;;;;;;5076249;28;20102;-70
2021/05/17 06:27:41;;;;;;;3.60;0.90;;;13.20;99.90;;;;;;5078831;28;20036;-70
2021/05/17 06:30:10;;;;;;;1.85;0.68;;;13.10;99.80;;;;;;5074500;28;20044;-70
2021/05/17 06:32:39;;;;;;;3.60;0.60;;;12.80;99.50;;;;;;5087706;28;20080;-70
2021/05/17 06:35:09;;;;;;;3.38;1.35;;;12.90;99.90;;;;;;5086109;28;20470;-70
2021/05/17 06:37:36;;;;;;;1.58;0.70;;;13.10;99.30;;;;;;5079134;28;21437;-71
2021/05/17 06:40:04;;;;;;;1.92;0.70;;;13.60;98.00;;;;;;5076317;28;20476;-70
2021/05/17 06:42:32;;;;;;;2.65;0.80;;;13.80;95.70;;;;;;5082953;28;20432;-70
2021/05/17 06:44:59;;;;;;;2.75;0.80;;;13.70;96.40;;;;;;5082814;28;20117;-69
2021/05/17 06:47:25;;;;;;;6.15;0.93;;;13.90;95.20;;;;;;5073750;28;20036;-70
2021/05/17 06:49:53;;;;;;;5.45;0.93;;;14.10;94.10;;;;;;5078451;28;20074;-69
2021/05/17 06:52:24;;;;;;;5.18;1.30;;;13.80;93.60;;;;;;5080238;28;20044;-76
2021/05/17 06:55:00;;;;;;;2.40;0.80;;;13.80;94.50;;;;;;5077282;28;20074;-75
2021/05/17 07:00:12;;;;;;;2.95;1.05;;;13.60;94.60;;;;;;5079262;28;20547;-77
2021/05/17 07:02:43;;;;;;;1.20;0.70;;;13.70;95.00;;;;;;5072370;28;20068;-75
2021/05/17 07:05:11;;;;;;;4.93;0.80;;;13.80;94.90;;;;;;5077697;28;20083;-77
2021/05/17 07:12:55;;;;;;;4.55;1.33;;;14.00;93.10;;;;;;5078892;28;20714;-77
2021/05/17 07:15:22;;;;;;;3.53;0.80;;;14.00;93.80;;;;;;5081973;28;20052;-80
2021/05/17 07:17:49;;;;;;;3.38;0.80;;;13.90;94.00;;;;;;5075447;28;20102;-77
2021/05/17 07:20:16;;;;;;;1.80;0.70;;;14.00;94.10;;;;;;5075512;28;20068;-77
2021/05/17 07:25:32;;;;;;;2.60;0.50;;;13.70;93.80;;;;;;5081893;28;20059;-79
2021/05/17 07:28:03;;;;;;;3.78;0.60;;;13.80;90.50;;;;;;5073785;28;20055;-77
2021/05/17 07:30:32;;;;;;;2.60;0.70;;;13.80;90.00;;;;;;5083411;28;20139;-77
2021/05/17 07:32:59;;;;;;;5.88;0.60;;;13.70;89.70;;;;;;5077917;28;20068;-74
2021/05/17 07:35:26;;;;;;;2.78;0.80;;;13.80;90.00;;;;;;5078624;28;20129;-78
2021/05/17 07:37:53;;;;;;;1.88;0.70;;;13.80;90.10;;;;;;5080611;28;20553;-78
2021/05/17 07:40:20;;;;;;;2.47;0.80;;;13.80;90.60;;;;;;5072599;28;20044;-79
2021/05/17 07:42:47;;;;;;;4.50;0.82;;;13.80;90.80;;;;;;5083251;28;20075;-79
2021/05/17 07:45:13;;;;;;;8.65;1.02;;;13.80;90.00;;;;;;5078884;28;20532;-76
2021/05/17 07:47:40;;;;;;;7.53;1.33;;;13.90;90.30;;;;;;5082088;28;20490;-76
2021/05/17 07:50:07;;;;;;;2.45;0.77;;;13.70;90.60;;;;;;5074470;28;20044;-76
2021/05/17 07:52:34;;;;;;;2.28;0.55;;;13.80;90.60;;;;;;5081908;28;20440;-77
2021/05/17 07:55:02;;;;;;;3.92;0.80;;;13.80;90.60;;;;;;5078217;28;20619;-77
2021/05/17 07:57:29;;;;;;;2.10;1.00;;;13.80;91.50;;;;;;5075200;28;20227;-76
2021/05/17 07:59:56;;;;;;;2.80;0.90;;;13.80;91.50;;;;;;5076668;28;21433;-76
2021/05/17 08:02:23;;;;;;;3.20;0.70;;;13.80;91.50;;;;;;5088998;28;20056;-77
2021/05/17 08:04:51;;;;;;;1.13;0.50;;;14.00;89.20;;;;;;5075798;28;20097;-76
2021/05/17 08:07:22;;;;;;;3.67;0.85;;;14.00;86.10;;;;;;5083615;28;20048;-74
2021/05/17 08:09:51;;;;;;;4.65;0.60;;;14.20;87.00;;;;;;5083153;28;20049;-76
2021/05/17 08:12:18;;;;;;;2.67;0.52;;;14.30;85.50;;;;;;5079177;28;20056;-79
2021/05/17 08:14:45;;;;;;;4.97;0.90;;;14.30;85.80;;;;;;5077096;28;20121;-77
2021/05/17 08:17:13;;;;;;;3.80;0.70;;;14.40;85.20;;;;;;5085505;28;20157;-76
2021/05/17 08:19:39;;;;;;;1.08;0.52;;;14.40;85.10;;;;;;5082144;28;20072;-77
2021/05/17 08:22:07;;;;;;;1.27;0.55;;;14.50;83.70;;;;;;5086842;28;20430;-76
2021/05/17 08:24:34;;;;;;;0.47;0.45;;;14.40;83.60;;;;;;5072363;28;20090;-75
2021/05/17 08:27:04;;;;;;;2.65;0.60;;;14.10;84.40;;;;;;5078243;28;20049;-73
2021/05/17 08:29:34;;;;;;;0.38;0.30;;;14.20;83.80;;;;;;5081649;28;20142;-77
2021/05/17 08:32:02;;;;;;;2.08;0.70;;;13.90;84.20;;;;;;5080158;28;20098;-73
2021/05/17 08:34:30;;;;;;;1.08;0.45;;;13.80;84.10;;;;;;5088605;28;20364;-77
2021/05/17 08:36:57;;;;;;;1.15;0.40;;;13.70;83.40;;;;;;5079559;28;20052;-76
2021/05/17 08:39:25;;;;;;;0.40;0.40;;;13.80;83.80;;;;;;5088276;28;20060;-77
2021/05/17 08:41:53;;;;;;;2.47;0.43;;;13.70;84.40;;;;;;5084496;28;20087;-76
2021/05/17 08:44:20;;;;;;;2.03;0.30;;;14.10;83.60;;;;;;5084365;28;20132;-77
2021/05/17 08:46:48;;;;;;;1.60;0.50;;;14.00;83.00;;;;;;5084985;28;20123;-78
2021/05/17 08:49:15;;;;;;;0.47;0.47;;;14.20;83.80;;;;;;5080066;28;20087;-76
2021/05/17 08:51:44;;;;;;;0.90;0.50;;;13.90;84.40;;;;;;5078936;28;20060;-77
2021/05/17 08:54:11;;;;;;;1.15;0.50;;;14.00;84.40;;;;;;5100676;28;20067;-76
2021/05/17 08:56:43;;;;;;;2.58;0.50;;;13.80;85.50;;;;;;5087601;28;20040;-76
2021/05/17 08:59:15;;;;;;;0.57;0.45;;;13.80;85.60;;;;;;5079132;28;20064;-76
2021/05/17 09:01:45;;;;;;;1.48;0.50;;;14.10;85.80;;;;;;5079381;28;20040;-77
2021/05/17 09:04:14;;;;;;;2.75;0.43;;;14.20;85.00;;;;;;5079290;28;20105;-77
2021/05/17 09:06:56;;;;;;;3.17;0.60;;;14.10;83.90;;;;;;5079090;28;20078;-76
2021/05/17 09:09:36;;;;;;;0.35;0.30;;;14.50;84.60;;;;;;5084840;28;20064;-76
2021/05/17 09:12:06;;;;;;;5.20;0.55;;;14.40;82.80;;;;;;5086128;28;20390;-75
2021/05/17 09:14:33;;;;;;;3.33;0.80;;;14.50;81.60;;;;;;5074806;28;20475;-77
2021/05/17 09:17:06;;;;;;;3.97;0.47;;;14.50;82.90;;;;;;5077724;28;20301;-76
2021/05/17 09:19:37;;;;;;;2.33;0.65;;;14.40;83.30;;;;;;5083125;28;20036;-77
2021/05/17 09:22:07;;;;;;;10.35;0.82;;;14.50;82.70;;;;;;5079991;28;20040;-78
2021/05/17 09:24:57;;;;;;;2.63;0.70;;;14.60;82.90;;;;;;5088793;28;20075;-78
2021/05/17 09:27:31;;;;;;;1.55;0.50;;;14.60;81.30;;;;;;5079631;28;20108;-78
2021/05/17 09:30:04;;;;;;;5.05;0.60;;;14.60;81.00;;;;;;5076336;28;20057;-77
2021/05/17 09:32:36;;;;;;;2.75;0.47;;;14.70;81.00;;;;;;5087597;28;20055;-77
2021/05/17 09:35:17;;;;;;;2.50;0.65;;;14.90;80.00;;;;;;5087844;28;20043;-78
2021/05/17 09:37:56;;;;;;;3.45;0.95;;;15.20;77.70;;;;;;5078390;28;20062;-87
2021/05/17 09:40:30;;;;;;;1.85;0.73;;;15.00;77.70;;;;;;5096486;27;20147;-83
2021/05/17 09:43:04;;;;;;;2.28;0.60;;;15.60;77.50;;;;;;5080887;28;20131;-81
2021/05/17 09:45:47;;;;;;;1.65;0.52;;;15.50;80.00;;;;;;5081022;28;20044;-78
2021/05/17 09:48:20;;;;;;;2.88;0.57;;;14.90;81.70;;;;;;5085172;28;20507;-79
2021/05/17 09:51:09;;;;;;;1.38;0.70;;;15.10;82.10;;;;;;5097299;27;20044;-78
2021/05/17 09:53:39;;;;;;;3.05;0.50;;;15.00;82.60;;;;;;5084702;28;20048;-74
2021/05/17 09:56:27;;;;;;;3.80;0.50;;;15.20;83.10;;;;;;5087056;28;20140;-79
2021/05/17 09:58:56;;;;;;;2.30;0.70;;;15.40;82.50;;;;;;5087053;28;20103;-79
2021/05/17 10:01:28;;;;;;;1.23;0.50;;;15.60;82.10;;;;;;5089423;28;20550;-79
2021/05/17 10:04:05;;;;;;;0.90;0.50;;;15.70;80.60;;;;;;5089515;28;20072;-77
2021/05/17 10:06:32;;;;;;;2.67;0.90;;;15.80;80.20;;;;;;5086973;28;20129;-77
2021/05/17 10:09:00;;;;;;;1.20;0.50;;;15.90;77.70;;;;;;5087401;28;20118;-77
2021/05/17 10:11:28;;;;;;;2.25;0.60;;;15.50;77.90;;;;;;5084349;28;20055;-80
2021/05/17 10:13:55;;;;;;;5.60;1.00;;;15.80;77.70;;;;;;5085448;28;20899;-81
2021/05/17 10:16:23;;;;;;;2.10;0.77;;;15.80;77.30;;;;;;5087543;28;20070;-78
2021/05/17 10:18:50;;;;;;;1.52;0.57;;;15.90;77.70;;;;;;5084889;28;20140;-79
2021/05/17 10:21:22;;;;;;;4.03;0.60;;;15.80;77.50;;;;;;5087730;28;20055;-78
2021/05/17 10:23:49;;;;;;;4.18;1.13;;;15.80;79.20;;;;;;5087505;28;20055;-79
2021/05/17 10:26:20;;;;;;;3.58;0.68;;;16.10;76.60;;;;;;5087932;28;20040;-80
2021/05/17 10:29:01;;;;;;;3.08;0.80;;;15.90;78.10;;;;;;5086011;28;20171;-80
2021/05/17 10:31:31;;;;;;;2.13;0.52;;;16.30;77.70;;;;;;5088523;28;21279;-78
2021/05/17 10:34:06;;;;;;;3.80;0.60;;;16.30;75.90;;;;;;5084649;28;20113;-79
2021/05/17 10:36:57;;;;;;;4.10;0.80;;;16.50;76.30;;;;;;5097016;27;20046;-80
2021/05/17 10:39:29;;;;;;;;;;;16.30;75.90;;;;;;5087753;28;20051;-79
2021/05/17 10:48:34;;;;;;;3.53;0.90;;;15.90;73.50;;;;;;5085609;28;20056;-79
2021/05/17 10:51:14;;;;;;;3.17;1.10;;;16.10;73.30;;;;;;5020655;28;20105;-76
2021/05/17 10:53:58;;;;;;;1.63;0.70;;;16.00;73.20;;;;;;5080979;28;20063;-78
2021/05/17 10:56:51;;;;;;;5.57;0.80;;;16.20;73.00;;;;;;5083772;28;20947;-78
2021/05/17 11:02:34;;;;;;;4.25;0.82;;;16.00;68.90;;;;;;5086715;28;20055;-80
2021/05/17 11:05:19;;;;;;;3.28;0.80;;;15.60;69.60;;;;;;5084908;28;20055;-79
2021/05/17 11:08:02;;;;;;;3.95;0.65;;;15.70;69.70;;;;;;5084723;28;20051;-76
2021/05/17 11:10:45;;;;;;;2.17;0.85;;;15.10;74.30;;;;;;5086775;28;20578;-79
2021/05/17 11:13:22;;;;;;;2.72;1.00;;;15.00;75.10;;;;;;5085346;28;20067;-77
2021/05/17 11:15:56;;;;;;;2.78;0.90;;;15.10;75.60;;;;;;5082337;28;20059;-75
2021/05/17 11:18:34;;;;;;;3.10;1.10;;;15.30;75.80;;;;;;5086860;28;20050;-79
2021/05/17 11:21:04;;;;;;;3.30;1.10;;;15.30;76.10;;;;;;5084538;28;20094;-81
2021/05/17 11:23:37;;;;;;;2.72;0.80;;;15.10;75.50;;;;;;5082635;28;20060;-80
2021/05/17 11:26:08;;;;;;;4.38;1.40;;;15.10;76.90;;;;;;5086754;28;20080;-80
2021/05/17 11:28:38;;;;;;;;;;;14.60;85.40;;;;;;5086646;28;20052;-81
2021/05/17 11:34:03;;;;;;;6.00;1.08;;;12.60;99.90;;;;;;5087182;28;20052;-80
2021/05/17 11:36:30;;;;;;;3.10;1.08;;;12.50;99.90;;;;;;5085288;28;20134;-80
2021/05/17 11:41:44;;;;;;;1.58;0.80;;;13.60;99.90;;;;;;5089066;28;20063;-81
2021/05/17 11:44:14;;;;;;;2.60;1.02;;;14.50;99.90;;;;;;5086797;28;20039;-81
2021/05/17 11:46:46;;;;;;;6.90;1.27;;;14.60;99.30;;;;;;5083979;28;20043;-80
2021/05/17 11:49:15;;;;;;;2.30;0.57;;;14.70;99.90;;;;;;5084169;28;20478;-81
2021/05/17 11:51:58;;;;;;;2.20;0.80;;;14.60;96.90;;;;;;5085321;28;20056;-78
2021/05/17 11:54:41;;;;;;;2.72;0.82;;;15.30;95.30;;;;;;5082725;28;20063;-81
2021/05/17 11:57:09;;;;;;;2.63;0.70;;;15.50;92.60;;;;;;5085747;28;20044;-80
2021/05/17 11:59:38;;;;;;;2.50;0.60;;;15.80;91.10;;;;;;5086500;28;20056;-82
2021/05/17 12:02:10;;;;;;;1.75;0.52;;;16.30;84.40;;;;;;5084015;28;20131;-81
2021/05/17 12:04:38;;;;;;;1.70;0.68;;;18.50;79.40;;;;;;5086699;28;20058;-81
2021/05/17 12:07:08;;;;;;;2.80;0.90;;;17.50;76.80;;;;;;5090575;28;20063;-79
2021/05/17 12:09:46;;;;;;;2.13;0.70;;;16.60;85.00;;;;;;5089887;28;20048;-80
2021/05/17 12:12:17;;;;;;;3.05;0.60;;;16.40;84.10;;;;;;5090893;28;20104;-81
2021/05/17 12:14:49;;;;;;;2.60;0.60;;;16.80;77.10;;;;;;5088517;28;20091;-76
2021/05/17 12:17:19;;;;;;;0.98;0.60;;;17.30;77.80;;;;;;5089098;28;20680;-79
2021/05/17 12:19:54;;;;;;;2.38;0.50;;;17.20;78.20;;;;;;5098358;27;20414;-79
2021/05/17 12:22:30;;;;;;;3.08;0.63;;;23.00;62.30;;;;;;5087888;28;20553;-83
2021/05/17 12:24:59;;;;;;;2.25;0.40;;;24.60;49.50;;;;;;5105027;27;20044;-78
2021/05/17 12:27:30;;;;;;;0.70;0.40;;;24.30;47.70;;;;;;5087396;28;20487;-79
2021/05/17 12:30:02;;;;;;;2.00;0.45;;;24.00;51.20;;;;;;5086428;28;20056;-77
2021/05/17 12:32:32;;;;;;;3.28;1.42;;;22.40;47.70;;;;;;5090763;28;20516;-80
2021/05/17 12:35:01;;;;;;;0.95;0.30;;;22.60;51.20;;;;;;5086806;28;20076;-79
2021/05/17 12:37:32;;;;;;;1.00;0.65;;;22.90;51.20;;;;;;5087449;28;20055;-80
2021/05/17 12:40:28;;;;;;;;;;;23.20;51.50;;;;;;5090926;28;20052;-78
2021/05/17 12:43:11;;;;;;;2.58;0.43;;;21.30;52.90;;;;;;5074478;28;19928;-78
2021/05/17 12:45:41;;;;;;;0.70;0.30;;;22.70;54.70;;;;;;5086558;28;20132;-81
2021/05/17 12:48:09;;;;;;;;;;;22.80;51.30;;;;;;5088939;28;20052;-76
2021/05/17 12:50:37;;;;;;;1.02;0.30;;;23.10;51.70;;;;;;5089914;28;19969;-81
2021/05/17 12:53:18;;;;;;;0.35;0.28;;;21.40;53.70;;;;;;5085662;28;20056;-78
2021/05/17 12:55:55;;;;;;;2.20;0.40;;;20.80;52.90;;;;;;5089307;28;20044;-78
2021/05/17 12:58:30;;;;;;;1.05;0.43;;;20.80;53.20;;;;;;5087390;28;20526;-78
2021/05/17 13:00:59;;;;;;;0.75;0.30;;;21.50;52.90;;;;;;5090101;28;20052;-80
2021/05/17 13:03:26;;;;;;;2.70;0.50;;;21.70;51.30;;;;;;5084682;28;20048;-80
2021/05/17 13:06:02;;;;;;;2.85;0.32;;;20.80;52.60;;;;;;5087966;28;20040;-81
2021/05/17 13:08:46;;;;;;;0.65;0.30;;;21.60;53.00;;;;;;5088295;28;20054;-80
2021/05/17 13:11:21;;;;;;;1.42;0.30;;;20.30;51.70;;;;;;5095945;27;20174;-80
2021/05/17 13:14:00;;;;;;;0.85;0.30;;;18.70;52.70;;;;;;5086278;28;20101;-80
2021/05/17 13:16:39;;;;;;;1.37;0.40;;;18.20;54.90;;;;;;5087332;28;20048;-79
2021/05/17 13:22:22;;;;;;;0.98;0.40;;;18.10;56.00;;;;;;5089609;28;20155;-80
2021/05/17 13:30:17;;;;;;;2.58;0.52;;;17.40;56.90;;;;;;5087844;28;20465;-78
2021/05/17 13:32:49;;;;;;;1.23;0.43;;;16.80;57.50;;;;;;5085448;28;20075;-78
2021/05/17 13:35:16;;;;;;;1.73;0.40;;;16.30;59.60;;;;;;5088754;28;20135;-78
2021/05/17 13:37:43;;;;;;;1.23;0.52;;;15.90;63.10;;;;;;5088473;28;20048;-79
2021/05/17 13:40:12;;;;;;;2.45;0.45;;;15.70;64.70;;;;;;5087645;28;20052;-79
2021/05/17 13:42:40;;;;;;;1.08;0.50;;;16.00;63.70;;;;;;5087273;28;20052;-78
2021/05/17 13:45:09;;;;;;;0.30;0.30;;;16.10;65.30;;;;;;5085331;28;20559;-80
2021/05/17 13:47:36;;;;;;;1.60;0.50;;;16.20;64.20;;;;;;5083567;28;20109;-78